Time;durP1;ratioP1;P1;durP2;ratioP2;P2;SDS_P1;SDS_P2;PMS_P1;PMS_P2;Temp;Humidity;BMP_temperature;BMP_pressure;BME280_temperature;BME280_humidity;BME280_pressure;Samples;Min_cycle;Max_cycle;Signal;HPM_P1;HPM_P2
2021/08/09 11:07:25;;;;;;;2.97;1.02;;;;;;;;;;4927369;29;20448;-65
2021/08/09 11:09:51;;;;;;;1.13;0.75;;;;;;;;;;4928442;29;20052;-65
2021/08/09 11:12:25;;;;;;;1.23;0.88;;;;;;;;;;4926283;29;20090;-65
2021/08/09 11:17:31;;;;;;;1.88;0.93;;;;;;;;;;4912948;29;20206;-65
2021/08/09 11:20:25;;;;;;;3.03;1.15;;;;;;;;;;4916787;29;20083;-65
2021/08/09 11:23:11;;;;;;;3.78;1.45;;;;;;;;;;4919646;29;20098;-65
2021/08/09 11:25:48;;;;;;;1.70;0.88;;;;;;;;;;4920167;29;20075;-65
2021/08/09 11:28:16;;;;;;;2.15;1.00;;;;;;;;;;4922750;29;20060;-65
2021/08/09 11:30:44;;;;;;;2.35;1.02;;;;;;;;;;4921527;29;20075;-65
2021/08/09 11:33:22;;;;;;;1.92;0.80;;;;;;;;;;4918793;29;20083;-65
2021/08/09 11:35:49;;;;;;;2.53;0.75;;;;;;;;;;4917423;29;20131;-65
2021/08/09 11:38:16;;;;;;;2.88;1.00;;;;;;;;;;4913868;29;20139;-65
2021/08/09 11:40:45;;;;;;;1.50;0.80;;;;;;;;;;4914404;29;20116;-66
2021/08/09 11:43:21;;;;;;;5.30;1.17;;;;;;;;;;4922292;29;20056;-71
2021/08/09 11:45:49;;;;;;;1.67;0.82;;;;;;;;;;4923548;29;20521;-70
2021/08/09 11:48:46;;;;;;;1.13;0.60;;;;;;;;;;4920833;29;20095;-70
2021/08/09 11:51:14;;;;;;;1.83;0.90;;;;;;;;;;4925988;29;20576;-71
2021/08/09 11:53:46;;;;;;;1.83;0.90;;;;;;;;;;4922614;29;20055;-70
2021/08/09 11:56:24;;;;;;;2.88;1.13;;;;;;;;;;4920632;29;20076;-72
2021/08/09 11:58:51;;;;;;;1.73;0.95;;;;;;;;;;4924402;29;20123;-73
2021/08/09 12:01:33;;;;;;;1.98;1.15;;;;;;;;;;4922251;29;20079;-71
2021/08/09 12:04:08;;;;;;;5.38;1.10;;;;;;;;;;4920548;29;20088;-71
2021/08/09 12:06:57;;;;;;;1.35;1.08;;;;;;;;;;4922959;29;20044;-71
2021/08/09 12:09:50;;;;;;;2.25;0.75;;;;;;;;;;4922405;29;20081;-71
2021/08/09 12:12:17;;;;;;;;;;;;;;;;;;4923551;29;20079;-65
2021/08/09 12:14:44;;;;;;;3.38;0.88;;;;;;;;;;4918873;29;20580;-65
2021/08/09 12:17:17;;;;;;;1.80;0.85;;;;;;;;;;4921780;29;20047;-71
2021/08/09 12:19:48;;;;;;;1.40;0.73;;;;;;;;;;4921697;29;20493;-68
2021/08/09 12:22:19;;;;;;;1.88;0.98;;;;;;;;;;4918107;29;20087;-66
2021/08/09 12:25:08;;;;;;;1.80;0.80;;;;;;;;;;4921909;29;20079;-64
2021/08/09 12:27:34;;;;;;;3.05;1.17;;;;;;;;;;4922390;29;20084;-65
2021/08/09 12:30:03;;;;;;;1.63;0.80;;;;;;;;;;4919945;29;20106;-66
2021/08/09 12:32:30;;;;;;;3.38;1.10;;;;;;;;;;4920807;29;20130;-68
2021/08/09 12:34:57;;;;;;;2.45;0.88;;;;;;;;;;4920676;29;20087;-67
2021/08/09 12:37:24;;;;;;;1.20;0.80;;;;;;;;;;4926047;29;20083;-67
2021/08/09 12:39:51;;;;;;;1.05;0.57;;;;;;;;;;4924539;29;20083;-67
2021/08/09 12:42:20;;;;;;;1.88;0.70;;;;;;;;;;4917941;29;20548;-67
2021/08/09 12:44:51;;;;;;;2.38;0.80;;;;;;;;;;4917303;29;20056;-69
2021/08/09 12:47:18;;;;;;;3.97;1.25;;;;;;;;;;4931757;29;20048;-66
2021/08/09 12:49:44;;;;;;;3.35;1.42;;;;;;;;;;4929695;29;20079;-64
2021/08/09 12:52:11;;;;;;;2.58;0.98;;;;;;;;;;4922950;29;20135;-65
2021/08/09 12:54:37;;;;;;;1.25;0.82;;;;;;;;;;4930005;29;20082;-64
2021/08/09 12:57:04;;;;;;;2.97;1.30;;;;;;;;;;4921044;29;20095;-65
2021/08/09 12:59:30;;;;;;;2.65;1.13;;;;;;;;;;4927725;29;20094;-67
2021/08/09 13:01:57;;;;;;;1.45;0.88;;;;;;;;;;4926759;29;20082;-68
2021/08/09 13:04:24;;;;;;;1.33;0.77;;;;;;;;;;4925389;29;20048;-69
2021/08/09 13:06:51;;;;;;;1.33;0.80;;;;;;;;;;4921254;29;20533;-66
2021/08/09 13:09:18;;;;;;;1.40;1.05;;;;;;;;;;4926052;29;20094;-64
2021/08/09 13:11:45;;;;;;;1.67;1.23;;;;;;;;;;4921922;29;20084;-64
2021/08/09 13:14:11;;;;;;;1.95;0.82;;;;;;;;;;4924242;29;20055;-64
2021/08/09 13:16:38;;;;;;;0.90;0.70;;;;;;;;;;4922534;29;20455;-64
2021/08/09 13:19:04;;;;;;;1.98;0.80;;;;;;;;;;4925806;29;20083;-64
2021/08/09 13:21:31;;;;;;;2.42;0.80;;;;;;;;;;4923078;29;20076;-64
2021/08/09 13:23:58;;;;;;;1.83;0.80;;;;;;;;;;4923266;29;20565;-64
2021/08/09 13:26:27;;;;;;;1.65;0.82;;;;;;;;;;4923355;29;20048;-64
2021/08/09 13:28:58;;;;;;;3.13;1.00;;;;;;;;;;4922200;29;20052;-64
2021/08/09 13:31:25;;;;;;;2.70;1.00;;;;;;;;;;4926625;29;20052;-64
2021/08/09 13:33:52;;;;;;;1.98;1.23;;;;;;;;;;4922156;29;20044;-64
2021/08/09 13:36:20;;;;;;;2.03;1.05;;;;;;;;;;4923722;29;20507;-64
2021/08/09 13:38:47;;;;;;;1.33;0.98;;;;;;;;;;4922254;29;20048;-64
2021/08/09 13:41:13;;;;;;;1.63;1.13;;;;;;;;;;4923812;29;20056;-64
2021/08/09 13:43:40;;;;;;;2.13;0.88;;;;;;;;;;4922026;29;20052;-64
2021/08/09 13:46:08;;;;;;;1.50;1.10;;;;;;;;;;4923717;29;20052;-64
2021/08/09 13:48:36;;;;;;;2.03;1.15;;;;;;;;;;4921948;29;20086;-64
2021/08/09 13:51:06;;;;;;;1.85;0.90;;;;;;;;;;4922349;29;20052;-64
2021/08/09 13:53:33;;;;;;;3.90;0.85;;;;;;;;;;4923627;29;20079;-64
2021/08/09 13:56:00;;;;;;;1.48;0.70;;;;;;;;;;4923925;29;20071;-64
2021/08/09 13:58:26;;;;;;;2.40;0.98;;;;;;;;;;4922843;29;20098;-64
2021/08/09 14:00:53;;;;;;;3.30;1.10;;;;;;;;;;4926013;29;20085;-64
2021/08/09 14:03:19;;;;;;;1.73;1.02;;;;;;;;;;4929308;29;20059;-64
2021/08/09 14:05:46;;;;;;;1.50;0.80;;;;;;;;;;4920987;29;20107;-64
2021/08/09 14:08:13;;;;;;;2.25;0.75;;;;;;;;;;4925916;29;20090;-64
2021/08/09 14:10:39;;;;;;;3.75;1.08;;;;;;;;;;4924147;29;20154;-64
2021/08/09 14:13:06;;;;;;;2.67;0.80;;;;;;;;;;4926178;29;20147;-64
2021/08/09 14:15:33;;;;;;;1.90;0.80;;;;;;;;;;4924301;29;20047;-64
2021/08/09 14:18:00;;;;;;;2.53;1.42;;;;;;;;;;4923848;29;20044;-64
2021/08/09 14:20:27;;;;;;;1.27;0.95;;;;;;;;;;4922108;29;20531;-64
2021/08/09 14:22:53;;;;;;;2.08;1.23;;;;;;;;;;4924457;29;20522;-64
2021/08/09 14:25:20;;;;;;;5.88;1.00;;;;;;;;;;4920781;29;20139;-62
2021/08/09 14:27:46;;;;;;;2.80;0.80;;;;;;;;;;4915577;29;20145;-62
2021/08/09 14:30:13;;;;;;;2.22;0.80;;;;;;;;;;4915914;29;20064;-62
2021/08/09 14:32:41;;;;;;;1.98;0.90;;;;;;;;;;4925093;29;20659;-62
2021/08/09 14:35:07;;;;;;;1.83;0.93;;;;;;;;;;4923057;29;20755;-65
2021/08/09 14:37:34;;;;;;;1.90;0.93;;;;;;;;;;4922488;29;20412;-66
2021/08/09 14:40:01;;;;;;;3.45;1.10;;;;;;;;;;4922962;29;20055;-69
2021/08/09 14:42:27;;;;;;;2.53;0.68;;;;;;;;;;4924007;29;20530;-67
2021/08/09 14:44:55;;;;;;;3.75;0.85;;;;;;;;;;4924878;29;20083;-67
2021/08/09 14:47:22;;;;;;;1.25;1.08;;;;;;;;;;4924068;29;20052;-70
2021/08/09 14:49:49;;;;;;;1.92;1.08;;;;;;;;;;4921971;29;20403;-71
2021/08/09 14:52:15;;;;;;;1.13;0.80;;;;;;;;;;4921465;29;20059;-70
2021/08/09 14:54:42;;;;;;;1.55;1.17;;;;;;;;;;4922391;29;20082;-71
2021/08/09 14:57:09;;;;;;;1.45;0.90;;;;;;;;;;4923418;29;20079;-71
2021/08/09 14:59:36;;;;;;;2.92;1.00;;;;;;;;;;4924811;29;20048;-69
2021/08/09 15:02:03;;;;;;;2.58;1.20;;;;;;;;;;4920551;29;20471;-72
2021/08/09 15:04:29;;;;;;;1.75;1.10;;;;;;;;;;4929675;29;20083;-70
2021/08/09 15:06:58;;;;;;;2.60;1.20;;;;;;;;;;4920591;29;20086;-69
2021/08/09 15:09:24;;;;;;;1.10;1.00;;;;;;;;;;4921669;29;20091;-71
2021/08/09 15:11:51;;;;;;;1.92;1.10;;;;;;;;;;4923228;29;20083;-66
2021/08/09 15:14:17;;;;;;;2.30;1.05;;;;;;;;;;4919583;29;20497;-67
2021/08/09 15:16:44;;;;;;;2.10;0.85;;;;;;;;;;4919621;29;20509;-66
2021/08/09 15:19:11;;;;;;;2.50;0.90;;;;;;;;;;4923463;29;20052;-66
2021/08/09 15:21:38;;;;;;;2.35;1.00;;;;;;;;;;4923684;29;20086;-67
2021/08/09 15:24:04;;;;;;;1.95;1.10;;;;;;;;;;4914608;29;20091;-67
2021/08/09 15:26:32;;;;;;;3.17;1.00;;;;;;;;;;4923184;29;20084;-67
2021/08/09 15:28:58;;;;;;;1.98;0.90;;;;;;;;;;4919088;29;20052;-67
2021/08/09 15:31:28;;;;;;;3.63;1.35;;;;;;;;;;4914871;29;20048;-69
2021/08/09 15:33:55;;;;;;;1.75;1.10;;;;;;;;;;4914269;29;20056;-67
2021/08/09 15:36:22;;;;;;;2.65;1.08;;;;;;;;;;4918162;29;20055;-66
2021/08/09 15:38:49;;;;;;;1.60;0.90;;;;;;;;;;4922606;29;20094;-66
2021/08/09 15:41:16;;;;;;;3.75;1.15;;;;;;;;;;4928173;29;20111;-66
2021/08/09 15:43:42;;;;;;;2.30;1.10;;;;;;;;;;4922322;29;20104;-65
2021/08/09 15:46:16;;;;;;;2.80;1.15;;;;;;;;;;4925416;29;20055;-66
2021/08/09 15:48:43;;;;;;;2.10;1.10;;;;;;;;;;4921319;29;20068;-64
2021/08/09 15:51:10;;;;;;;2.53;1.10;;;;;;;;;;4914198;29;20098;-64
2021/08/09 15:53:38;;;;;;;1.88;1.00;;;;;;;;;;4914431;29;20048;-64
2021/08/09 15:56:07;;;;;;;2.20;1.05;;;;;;;;;;4934343;29;20076;-64
2021/08/09 15:58:36;;;;;;;2.00;0.95;;;;;;;;;;4921912;29;20123;-65
2021/08/09 16:01:04;;;;;;;1.88;1.10;;;;;;;;;;4923845;29;20087;-65
2021/08/09 16:03:32;;;;;;;1.45;1.00;;;;;;;;;;4924153;29;20051;-64
2021/08/09 16:05:58;;;;;;;2.25;1.10;;;;;;;;;;4924145;29;20048;-65
2021/08/09 16:08:39;;;;;;;2.75;1.33;;;;;;;;;;4928155;29;20095;-69
2021/08/09 16:11:07;;;;;;;1.65;1.00;;;;;;;;;;4922446;29;20766;-63
2021/08/09 16:13:33;;;;;;;4.60;1.38;;;;;;;;;;4923611;29;20080;-63
2021/08/09 16:16:00;;;;;;;2.15;1.10;;;;;;;;;;4926748;29;20414;-63
2021/08/09 16:18:30;;;;;;;1.05;0.90;;;;;;;;;;4926345;29;20055;-64
2021/08/09 16:20:57;;;;;;;2.35;1.23;;;;;;;;;;4919674;29;20440;-64
2021/08/09 16:23:24;;;;;;;2.25;1.05;;;;;;;;;;4922711;29;20558;-65
2021/08/09 16:25:50;;;;;;;2.08;1.10;;;;;;;;;;4921651;29;20072;-65
2021/08/09 16:28:17;;;;;;;2.22;1.08;;;;;;;;;;4922917;29;20083;-64
2021/08/09 16:30:43;;;;;;;3.08;1.13;;;;;;;;;;4922535;29;20131;-64
2021/08/09 16:33:10;;;;;;;3.97;1.38;;;;;;;;;;4922384;29;20098;-64
2021/08/09 16:35:38;;;;;;;1.75;1.02;;;;;;;;;;4919789;29;20136;-64
2021/08/09 16:38:04;;;;;;;2.72;1.00;;;;;;;;;;4925175;29;20472;-64
2021/08/09 16:40:31;;;;;;;2.72;1.30;;;;;;;;;;4923584;29;20091;-64
2021/08/09 16:42:58;;;;;;;4.32;1.30;;;;;;;;;;4920754;29;20149;-64
2021/08/09 16:45:24;;;;;;;2.35;1.55;;;;;;;;;;4923252;29;20086;-65
2021/08/09 16:47:51;;;;;;;2.10;0.90;;;;;;;;;;4920797;29;20048;-65
2021/08/09 16:50:17;;;;;;;1.95;1.15;;;;;;;;;;4921089;29;20139;-65
2021/08/09 16:52:44;;;;;;;5.93;1.23;;;;;;;;;;4925939;29;20083;-65
2021/08/09 16:55:10;;;;;;;2.30;1.30;;;;;;;;;;4920861;29;20523;-65
2021/08/09 16:57:37;;;;;;;4.28;1.42;;;;;;;;;;4915348;29;20550;-65
2021/08/09 17:00:04;;;;;;;1.63;1.27;;;;;;;;;;4918468;29;20048;-65
2021/08/09 17:02:30;;;;;;;5.18;1.50;;;;;;;;;;4918229;29;20166;-65
2021/08/09 17:04:57;;;;;;;12.90;1.85;;;;;;;;;;4922573;29;20088;-65
2021/08/09 17:07:24;;;;;;;1.70;1.00;;;;;;;;;;4923377;29;20170;-65
2021/08/09 17:09:50;;;;;;;3.65;1.52;;;;;;;;;;4921479;29;20139;-65
2021/08/09 17:12:17;;;;;;;3.03;1.38;;;;;;;;;;4920749;29;20084;-65
2021/08/09 17:14:44;;;;;;;2.70;1.27;;;;;;;;;;4923899;29;20418;-65
2021/08/09 17:17:10;;;;;;;4.47;1.13;;;;;;;;;;4923480;29;20051;-65
2021/08/09 17:19:37;;;;;;;2.72;1.10;;;;;;;;;;4914560;29;20091;-65
2021/08/09 17:22:03;;;;;;;3.17;1.17;;;;;;;;;;4921295;29;20084;-65
2021/08/09 17:24:30;;;;;;;2.35;1.00;;;;;;;;;;4914291;29;20131;-65
2021/08/09 17:26:56;;;;;;;3.67;1.20;;;;;;;;;;4914072;29;20177;-65
2021/08/09 17:29:24;;;;;;;2.83;1.17;;;;;;;;;;4922222;29;20059;-65
2021/08/09 17:31:51;;;;;;;2.50;1.30;;;;;;;;;;4921787;29;20139;-65
2021/08/09 17:34:18;;;;;;;3.67;1.27;;;;;;;;;;4922241;29;20055;-65
2021/08/09 17:36:45;;;;;;;2.90;1.10;;;;;;;;;;4920984;29;20453;-65
2021/08/09 17:39:11;;;;;;;3.13;1.30;;;;;;;;;;4921383;29;20127;-65
2021/08/09 17:41:38;;;;;;;4.93;1.52;;;;;;;;;;4920773;29;20107;-65
2021/08/09 17:44:05;;;;;;;3.25;2.15;;;;;;;;;;4923276;29;20060;-65
2021/08/09 17:46:32;;;;;;;1.88;1.40;;;;;;;;;;4920546;29;20977;-65
2021/08/09 17:49:01;;;;;;;2.08;1.30;;;;;;;;;;4923681;29;20611;-65
2021/08/09 17:51:28;;;;;;;3.40;1.30;;;;;;;;;;4919821;29;20138;-65
2021/08/09 17:53:55;;;;;;;2.33;1.27;;;;;;;;;;4920407;29;20110;-65
2021/08/09 17:56:21;;;;;;;2.00;1.52;;;;;;;;;;4921958;29;20164;-65
2021/08/09 17:58:48;;;;;;;1.42;1.15;;;;;;;;;;4919556;29;20459;-65
2021/08/09 18:01:14;;;;;;;2.63;1.35;;;;;;;;;;4923694;29;20127;-65
2021/08/09 18:03:41;;;;;;;2.13;1.02;;;;;;;;;;4922999;29;20047;-65
2021/08/09 18:06:08;;;;;;;1.27;1.05;;;;;;;;;;4920994;29;20459;-65
2021/08/09 18:08:34;;;;;;;2.15;1.17;;;;;;;;;;4918227;29;20150;-65
2021/08/09 18:11:01;;;;;;;2.50;1.35;;;;;;;;;;4921065;29;20051;-65
2021/08/09 18:13:27;;;;;;;3.03;1.67;;;;;;;;;;4922768;29;20519;-65
2021/08/09 18:15:54;;;;;;;3.28;1.77;;;;;;;;;;4924604;29;20083;-65
2021/08/09 18:18:21;;;;;;;2.00;1.50;;;;;;;;;;4921159;29;20048;-65
2021/08/09 18:21:05;;;;;;;3.05;1.38;;;;;;;;;;4919201;29;20415;-65
2021/08/09 18:23:32;;;;;;;5.53;1.70;;;;;;;;;;4921183;29;20131;-65
2021/08/09 18:26:00;;;;;;;3.03;1.40;;;;;;;;;;4916694;29;20094;-65
2021/08/09 18:28:27;;;;;;;3.15;1.98;;;;;;;;;;4913468;29;20155;-65
2021/08/09 18:30:53;;;;;;;2.70;1.85;;;;;;;;;;4914178;29;20135;-65
2021/08/09 18:33:20;;;;;;;4.03;1.83;;;;;;;;;;4933071;29;20506;-65
2021/08/09 18:35:46;;;;;;;5.25;1.75;;;;;;;;;;4933494;29;20102;-65
2021/08/09 18:38:13;;;;;;;4.63;2.03;;;;;;;;;;4933836;29;20134;-65
2021/08/09 18:40:49;;;;;;;4.50;1.40;;;;;;;;;;4933987;29;20421;-65
2021/08/09 18:43:15;;;;;;;2.65;1.70;;;;;;;;;;4918947;29;20515;-65
2021/08/09 18:45:42;;;;;;;2.42;1.25;;;;;;;;;;4917216;29;20094;-65
2021/08/09 18:48:09;;;;;;;2.42;1.80;;;;;;;;;;4933459;29;20077;-65
2021/08/09 18:50:36;;;;;;;2.70;1.30;;;;;;;;;;4923952;29;20087;-65
2021/08/09 18:53:03;;;;;;;3.55;1.63;;;;;;;;;;4913109;29;20139;-65
2021/08/09 18:55:30;;;;;;;5.53;1.52;;;;;;;;;;4914340;29;20606;-65
2021/08/09 18:57:59;;;;;;;4.03;1.65;;;;;;;;;;4913938;29;20091;-65
2021/08/09 19:00:25;;;;;;;1.85;1.40;;;;;;;;;;4925727;29;20056;-65
2021/08/09 19:02:52;;;;;;;3.65;1.67;;;;;;;;;;4928967;29;20610;-65
2021/08/09 19:05:19;;;;;;;1.55;1.17;;;;;;;;;;4933181;29;20091;-65
2021/08/09 19:07:46;;;;;;;5.28;1.50;;;;;;;;;;4914076;29;20079;-65
2021/08/09 19:10:12;;;;;;;4.45;1.60;;;;;;;;;;4913601;29;20098;-65
2021/08/09 19:12:39;;;;;;;2.58;1.17;;;;;;;;;;4912855;29;20102;-65
2021/08/09 19:15:07;;;;;;;6.25;1.80;;;;;;;;;;4923907;29;20052;-65
2021/08/09 19:17:34;;;;;;;3.00;1.50;;;;;;;;;;4932832;29;20083;-65
2021/08/09 19:20:04;;;;;;;4.05;1.52;;;;;;;;;;4920007;29;20515;-65
2021/08/09 19:22:31;;;;;;;2.80;1.40;;;;;;;;;;4913465;29;20107;-65
2021/08/09 19:24:58;;;;;;;2.25;1.35;;;;;;;;;;4912609;29;20519;-65
2021/08/09 19:27:25;;;;;;;2.60;1.52;;;;;;;;;;4929116;29;20075;-65
2021/08/09 19:29:51;;;;;;;3.10;1.40;;;;;;;;;;4932653;29;20083;-65
2021/08/09 19:32:18;;;;;;;1.98;1.30;;;;;;;;;;4932976;29;20087;-66
2021/08/09 19:34:44;;;;;;;1.63;1.42;;;;;;;;;;4917895;29;20155;-65
2021/08/09 19:37:11;;;;;;;2.85;1.40;;;;;;;;;;4915898;29;20460;-65
2021/08/09 19:39:38;;;;;;;4.88;2.50;;;;;;;;;;4920698;29;20131;-65
2021/08/09 19:42:04;;;;;;;4.18;2.40;;;;;;;;;;4913710;29;20091;-65
2021/08/09 19:44:31;;;;;;;3.28;1.90;;;;;;;;;;4921717;29;20135;-65
2021/08/09 19:46:57;;;;;;;8.13;2.47;;;;;;;;;;4934927;29;20134;-65
2021/08/09 19:49:24;;;;;;;3.83;1.73;;;;;;;;;;4927712;29;20052;-66
2021/08/09 19:51:50;;;;;;;5.55;2.25;;;;;;;;;;4918168;29;20106;-65
2021/08/09 19:54:22;;;;;;;5.25;2.10;;;;;;;;;;4935337;29;20059;-63
2021/08/09 19:56:48;;;;;;;6.53;2.00;;;;;;;;;;4925311;29;20512;-66
2021/08/09 19:59:15;;;;;;;4.05;1.95;;;;;;;;;;4929766;29;20091;-66
2021/08/09 20:01:42;;;;;;;3.70;2.15;;;;;;;;;;4927839;29;20083;-64
2021/08/09 20:04:12;;;;;;;4.88;1.95;;;;;;;;;;4924496;29;20126;-66
2021/08/09 20:06:40;;;;;;;4.70;2.10;;;;;;;;;;4921723;29;20074;-64
2021/08/09 20:09:07;;;;;;;10.63;3.22;;;;;;;;;;4918966;29;20421;-64
2021/08/09 20:11:33;;;;;;;18.17;5.68;;;;;;;;;;4937836;29;20056;-64
2021/08/09 20:14:03;;;;;;;3.08;1.80;;;;;;;;;;4937980;29;20060;-65
2021/08/09 20:16:30;;;;;;;7.90;2.30;;;;;;;;;;4938099;29;20090;-65
2021/08/09 20:18:56;;;;;;;5.70;2.45;;;;;;;;;;4937899;29;20643;-65
2021/08/09 20:21:23;;;;;;;7.07;2.15;;;;;;;;;;4937965;29;20504;-64
2021/08/09 20:23:50;;;;;;;3.40;2.20;;;;;;;;;;4938080;29;20083;-65
2021/08/09 20:26:16;;;;;;;11.20;4.85;;;;;;;;;;4938016;29;20139;-64
2021/08/09 20:28:43;;;;;;;7.18;3.00;;;;;;;;;;4937604;29;20148;-64
2021/08/09 20:31:10;;;;;;;5.18;2.55;;;;;;;;;;4937718;29;20052;-65
2021/08/09 20:33:36;;;;;;;5.45;2.40;;;;;;;;;;4937818;29;20055;-65
2021/08/09 20:36:03;;;;;;;7.13;2.38;;;;;;;;;;4937430;29;20052;-65
2021/08/09 20:38:30;;;;;;;3.55;2.00;;;;;;;;;;4937724;29;20075;-65
2021/08/09 20:40:57;;;;;;;4.85;2.03;;;;;;;;;;4937280;29;20539;-65
2021/08/09 20:43:23;;;;;;;2.83;1.80;;;;;;;;;;4936373;29;20056;-65
2021/08/09 20:45:50;;;;;;;5.03;2.00;;;;;;;;;;4937506;29;20083;-66
2021/08/09 20:48:17;;;;;;;3.83;2.00;;;;;;;;;;4937176;29;20055;-64
2021/08/09 20:50:43;;;;;;;3.72;2.08;;;;;;;;;;4937305;29;20086;-65
2021/08/09 20:53:10;;;;;;;2.92;2.08;;;;;;;;;;4937208;29;20087;-65
2021/08/09 20:55:36;;;;;;;5.65;2.17;;;;;;;;;;4937487;29;20139;-65
2021/08/09 20:58:03;;;;;;;2.60;1.75;;;;;;;;;;4937012;29;20082;-65
2021/08/09 21:00:29;;;;;;;3.75;2.03;;;;;;;;;;4937221;29;20514;-65
2021/08/09 21:02:56;;;;;;;3.00;2.00;;;;;;;;;;4935899;29;20076;-65
2021/08/09 21:05:22;;;;;;;4.47;2.03;;;;;;;;;;4937059;29;20056;-65
2021/08/09 21:07:49;;;;;;;3.70;1.90;;;;;;;;;;4936882;29;20079;-65
2021/08/09 21:10:16;;;;;;;5.80;2.00;;;;;;;;;;4936930;29;20098;-66
2021/08/09 21:12:42;;;;;;;3.72;1.98;;;;;;;;;;4936911;29;20083;-66
2021/08/09 21:15:09;;;;;;;3.85;2.13;;;;;;;;;;4936899;29;20130;-65
2021/08/09 21:17:36;;;;;;;5.97;2.33;;;;;;;;;;4937067;29;20091;-65
2021/08/09 21:20:03;;;;;;;4.32;2.10;;;;;;;;;;4936696;29;20103;-65
2021/08/09 21:22:30;;;;;;;4.07;2.08;;;;;;;;;;4936988;29;20090;-66
2021/08/09 21:24:57;;;;;;;5.10;2.20;;;;;;;;;;4936738;29;20086;-66
2021/08/09 21:27:23;;;;;;;4.43;2.38;;;;;;;;;;4936418;29;20090;-66
2021/08/09 21:29:50;;;;;;;6.82;2.50;;;;;;;;;;4936567;29;20087;-65
2021/08/09 21:32:17;;;;;;;6.00;2.10;;;;;;;;;;4936600;29;20086;-66
2021/08/09 21:34:44;;;;;;;4.97;2.03;;;;;;;;;;4936591;29;20143;-66
2021/08/09 21:37:10;;;;;;;4.82;2.40;;;;;;;;;;4936572;29;20131;-66
2021/08/09 21:39:37;;;;;;;4.90;2.25;;;;;;;;;;4936548;29;20083;-66
2021/08/09 21:42:04;;;;;;;4.13;2.40;;;;;;;;;;4936470;29;20095;-66
2021/08/09 21:44:30;;;;;;;3.78;2.08;;;;;;;;;;4936694;29;20094;-65
2021/08/09 21:46:57;;;;;;;3.95;2.15;;;;;;;;;;4936373;29;20147;-65
2021/08/09 21:49:23;;;;;;;3.53;1.98;;;;;;;;;;4936241;29;20144;-65
2021/08/09 21:51:50;;;;;;;4.00;2.00;;;;;;;;;;4936247;29;20098;-66
2021/08/09 21:54:18;;;;;;;4.30;2.00;;;;;;;;;;4936279;29;20091;-65
2021/08/09 21:56:44;;;;;;;3.40;2.45;;;;;;;;;;4935971;29;20562;-65
2021/08/09 21:59:11;;;;;;;3.83;2.47;;;;;;;;;;4936184;29;20587;-65
2021/08/09 22:01:38;;;;;;;3.10;2.10;;;;;;;;;;4919140;29;20091;-66
2021/08/09 22:04:04;;;;;;;5.63;1.80;;;;;;;;;;4935965;29;20048;-65
2021/08/09 22:06:31;;;;;;;2.78;1.80;;;;;;;;;;4935843;29;20079;-65
2021/08/09 22:08:58;;;;;;;3.28;2.17;;;;;;;;;;4935016;29;20090;-65
2021/08/09 22:11:24;;;;;;;5.65;2.63;;;;;;;;;;4935856;29;20091;-65
2021/08/09 22:13:51;;;;;;;7.57;2.17;;;;;;;;;;4935716;29;20087;-65
2021/08/09 22:16:18;;;;;;;4.75;2.45;;;;;;;;;;4929654;29;20052;-65
2021/08/09 22:18:44;;;;;;;7.80;2.10;;;;;;;;;;4916781;29;20048;-65
2021/08/09 22:21:12;;;;;;;2.85;1.70;;;;;;;;;;4916739;29;20515;-65
2021/08/09 22:23:39;;;;;;;5.78;1.80;;;;;;;;;;4916943;29;20126;-65
2021/08/09 22:26:05;;;;;;;3.03;1.73;;;;;;;;;;4921323;29;20083;-65
2021/08/09 22:28:32;;;;;;;9.15;3.08;;;;;;;;;;4935693;29;20079;-65
2021/08/09 22:30:58;;;;;;;5.10;2.17;;;;;;;;;;4935583;29;20079;-65
2021/08/09 22:33:25;;;;;;;3.58;2.17;;;;;;;;;;4936992;29;20048;-65
2021/08/09 22:35:51;;;;;;;2.88;1.95;;;;;;;;;;4936465;29;20056;-65
2021/08/09 22:38:18;;;;;;;6.20;2.72;;;;;;;;;;4935447;29;20091;-65
2021/08/09 22:40:44;;;;;;;5.25;2.25;;;;;;;;;;4934263;29;20051;-65
2021/08/09 22:43:14;;;;;;;5.25;2.53;;;;;;;;;;4935519;29;20130;-65
2021/08/09 22:45:41;;;;;;;6.28;3.15;;;;;;;;;;4934672;29;20471;-65
2021/08/09 22:48:07;;;;;;;3.90;2.15;;;;;;;;;;4916339;29;20114;-65
2021/08/09 22:50:34;;;;;;;3.45;1.85;;;;;;;;;;4916166;29;20048;-64
2021/08/09 22:53:00;;;;;;;4.35;2.28;;;;;;;;;;4916119;29;20134;-65
2021/08/09 22:55:27;;;;;;;9.30;2.47;;;;;;;;;;4916237;29;20293;-65
2021/08/09 22:57:54;;;;;;;5.38;2.03;;;;;;;;;;4934096;29;20135;-65
2021/08/09 23:00:20;;;;;;;5.18;2.00;;;;;;;;;;4935088;29;20482;-64
2021/08/09 23:02:47;;;;;;;2.35;2.13;;;;;;;;;;4935012;29;20130;-65
2021/08/09 23:05:14;;;;;;;4.32;2.38;;;;;;;;;;4935109;29;20592;-65
2021/08/09 23:07:41;;;;;;;3.03;2.20;;;;;;;;;;4919015;29;20098;-65
2021/08/09 23:10:08;;;;;;;4.03;2.00;;;;;;;;;;4915801;29;20092;-65
2021/08/09 23:12:34;;;;;;;4.45;2.08;;;;;;;;;;4916059;29;20083;-65
2021/08/09 23:15:01;;;;;;;3.20;2.05;;;;;;;;;;4915815;29;20104;-65
2021/08/09 23:17:28;;;;;;;3.25;2.13;;;;;;;;;;4898968;29;20059;-65
2021/08/09 23:19:54;;;;;;;3.67;2.03;;;;;;;;;;4915108;29;20075;-65
2021/08/09 23:22:21;;;;;;;2.78;1.95;;;;;;;;;;4915758;29;20527;-65
2021/08/09 23:24:47;;;;;;;3.10;1.88;;;;;;;;;;4915703;29;20102;-64
2021/08/09 23:27:15;;;;;;;4.03;1.90;;;;;;;;;;4923109;29;20090;-65
2021/08/09 23:29:42;;;;;;;2.63;2.10;;;;;;;;;;4933733;29;20102;-64
2021/08/09 23:32:08;;;;;;;3.60;1.67;;;;;;;;;;4934400;29;20440;-65
2021/08/09 23:34:36;;;;;;;6.03;2.30;;;;;;;;;;4919726;29;20527;-65
2021/08/09 23:37:03;;;;;;;3.15;2.10;;;;;;;;;;4933098;29;20098;-65
2021/08/09 23:39:29;;;;;;;3.47;1.90;;;;;;;;;;4934633;29;20514;-65
2021/08/09 23:41:56;;;;;;;2.03;1.80;;;;;;;;;;4934479;29;20463;-65
2021/08/09 23:44:23;;;;;;;4.30;2.20;;;;;;;;;;4934479;29;20516;-64
2021/08/09 23:46:50;;;;;;;5.63;2.20;;;;;;;;;;4934444;29;20079;-65
2021/08/09 23:49:16;;;;;;;5.68;2.17;;;;;;;;;;4934288;29;20094;-65
2021/08/09 23:51:43;;;;;;;3.67;2.47;;;;;;;;;;4934606;29;20102;-65
2021/08/09 23:54:09;;;;;;;4.63;2.65;;;;;;;;;;4934547;29;20085;-65
2021/08/09 23:56:36;;;;;;;3.53;2.10;;;;;;;;;;4934440;29;20102;-64
2021/08/09 23:59:02;;;;;;;2.85;2.00;;;;;;;;;;4933153;29;20090;-64
